Terminal Aerodrome Forecast
Issued by NWS

Home | Current Version | Previous Version | Graphics & Text | Print | Product List | Glossary On
Versions: 1 2 3 4 5 6 7 8 9 10 11 12 13 14 15 16
000
FTUS41 KCLE 311800 AAA
TAFFDY
TAF AMD
KFDY 311854Z 3119/0118 23010KT P6SM SCT025 OVC035
     FM010600 24005KT 4SM BR OVC019
     FM010900 20004KT 2SM BR OVC009
     FM011400 22010KT 5SM BR OVC019=

USA.gov is the U.S. government's official web portal to all federal, state and local government web resources and services.